Terminal Aerodrome Forecast
Issued by NWS

Home | Current Version | Previous Version | Text Only | Print | Product List | Glossary On
Versions: 1 2 3 4 5 6 7 8 9 10 11 12 13 14 15 16 17 18 19 20 21 22 23 24
000
FTUS43 KDLH 202300
TAFBRD
TAF
KBRD 202335Z 2100/2124 20009KT P6SM BKN035
     FM210200 20010KT 6SM BR SCT040
      TEMPO 2102/2105 4SM TSRA BKN015CB
     FM210600 20007KT 5SM BR BKN025
     FM210800 19005KT 3SM BR OVC015
      TEMPO 2108/2112 1/2SM FG BKN004
     FM211500 19009KT P6SM SCT025=

USA.gov is the U.S. government's official web portal to all federal, state and local government web resources and services.